Private Wetterstation Grnau im Almtal
www.gruenau.tv

Wetterdaten: aktuell Donnerstag, 18.01.2018 12:30
Datum Zeit Temperatur Temp. min Temp. max Luftfeuchte Luftdruck Regen Wind Richtung Richtung Sonne ET UV Solar Taupunkt Windchill Windben
18.01.2018 12:30 5,4 C 5,2 C 5,4 C 77 % 1006,0 hPa 0,0 l/m 2,6 km/h (1 Bft) N-NO 20 0 min 0,025 mm 0,0 UV-I 100 W/m 1,7 C 5,4 C 6,4 km/h (2 Bft)
18.01.2018 11:30 4,5 C 4,4 C 4,5 C 75 % 1007,2 hPa 0,0 l/m 1,0 km/h (0 Bft) N-NW 340 0 min 0,025 mm 0,0 UV-I 47 W/m 0,5 C 4,5 C 3,2 km/h (1 Bft)
18.01.2018 10:25 3,4 C 3,3 C 3,4 C 76 % 1008,7 hPa 0,0 l/m 1,2 km/h (1 Bft) SW 224 0 min 0,025 mm 0,0 UV-I 58 W/m -0,4 C 3,4 C 6,4 km/h (2 Bft)
18.01.2018 09:25 2,3 C 2,2 C 2,3 C 82 % 1010,6 hPa 0,0 l/m 3,8 km/h (1 Bft) O-SO 120 0 min 0,025 mm 0,0 UV-I 39 W/m -0,4 C 2,3 C 11,3 km/h (2 Bft)
18.01.2018 08:25 1,9 C 1,7 C 1,9 C 84 % 1011,8 hPa 0,2 l/m 6,3 km/h (2 Bft) S-SW 209 5 min 0,025 mm 0,0 UV-I 12 W/m -0,5 C 1,9 C 11,3 km/h (2 Bft)
18.01.2018 07:25 2,3 C 2,3 C 2,4 C 80 % 1012,1 hPa 0,0 l/m 8,6 km/h (2 Bft) W 270 0 min 0,025 mm 0,0 UV-I 0 W/m -0,8 C 0,2 C 19,3 km/h (3 Bft)
18.01.2018 06:25 2,5 C 2,5 C 2,7 C 76 % 1012,5 hPa 0,0 l/m 13,1 km/h (3 Bft) N-NW 346 0 min 0,000 mm 0,0 UV-I 0 W/m -1,3 C -2,8 C 29,0 km/h (5 Bft)
18.01.2018 05:25 1,9 C 1,7 C 1,9 C 82 % 1012,9 hPa 0,4 l/m 6,5 km/h (2 Bft) N-NO 13 0 min 0,000 mm 0,0 UV-I 0 W/m -0,8 C 1,8 C 11,3 km/h (2 Bft)
18.01.2018 04:25 0,8 C 0,8 C 0,9 C 85 % 1013,1 hPa 0,0 l/m 4,7 km/h (1 Bft) S-SW 192 0 min 0,025 mm 0,0 UV-I 0 W/m -1,4 C 0,8 C 9,7 km/h (2 Bft)
18.01.2018 03:25 2,0 C 1,9 C 2,0 C 74 % 1013,3 hPa 0,0 l/m 12,6 km/h (3 Bft) N-NW 332 0 min 0,025 mm 0,0 UV-I 0 W/m -2,1 C -3,1 C 29,0 km/h (5 Bft)
18.01.2018 02:25 1,7 C 1,7 C 1,9 C 75 % 1013,3 hPa 0,0 l/m 12,6 km/h (3 Bft) N-NO 13 0 min 0,051 mm 0,0 UV-I 0 W/m -2,2 C -3,4 C 27,4 km/h (4 Bft)
18.01.2018 01:25 2,2 C 2,1 C 2,2 C 69 % 1013,2 hPa 0,0 l/m 24,5 km/h (4 Bft) NW 304 0 min 0,051 mm 0,0 UV-I 0 W/m -2,9 C -8,6 C 49,9 km/h (6 Bft)
18.01.2018 00:25 2,1 C 2,1 C 2,2 C 66 % 1013,0 hPa 0,0 l/m 16,1 km/h (3 Bft) N-NW 334 0 min 0,051 mm 0,0 UV-I 0 W/m -3,6 C -5,0 C 35,4 km/h (5 Bft)
17.01.2018 23:25 1,7 C 1,7 C 1,7 C 72 % 1012,6 hPa 0,0 l/m 22,4 km/h (4 Bft) N-NW 329 0 min 0,051 mm 0,0 UV-I 0 W/m -2,8 C -8,4 C 49,9 km/h (6 Bft)
17.01.2018 22:25 1,9 C 1,8 C 1,9 C 71 % 1011,4 hPa 0,0 l/m 17,6 km/h (3 Bft) N-NW 331 0 min 0,025 mm 0,0 UV-I 0 W/m -2,8 C -6,1 C 66,0 km/h (8 Bft)
17.01.2018 21:25 1,4 C 1,3 C 1,4 C 78 % 1010,7 hPa 0,0 l/m 16,2 km/h (3 Bft) N 1 0 min 0,001 mm 0,0 UV-I 0 W/m -2,0 C -6,0 C 43,5 km/h (6 Bft)
17.01.2018 20:25 1,1 C 1,1 C 1,2 C 80 % 1009,5 hPa 0,0 l/m 28,7 km/h (4 Bft) N-NW 332 0 min 0,025 mm 0,0 UV-I 0 W/m -2,0 C -11,5 C 51,5 km/h (7 Bft)
17.01.2018 19:25 1,0 C 1,0 C 1,0 C 77 % 1008,4 hPa 0,0 l/m 13,2 km/h (3 Bft) NW 324 0 min 0,001 mm 0,0 UV-I 0 W/m -2,6 C -4,7 C 41,8 km/h (6 Bft)
17.01.2018 18:25 1,0 C 0,9 C 1,0 C 72 % 1008,4 hPa 0,0 l/m 15,6 km/h (3 Bft) W 277 0 min 0,025 mm 0,0 UV-I 0 W/m -3,5 C -6,1 C 37,0 km/h (5 Bft)
17.01.2018 17:25 0,1 C 0,1 C 0,4 C 83 % 1007,7 hPa 0,0 l/m 14,2 km/h (3 Bft) N 359 0 min 0,025 mm 0,0 UV-I 0 W/m -2,4 C -6,4 C 25,7 km/h (4 Bft)
17.01.2018 16:25 1,2 C 1,2 C 1,3 C 71 % 1006,9 hPa 0,0 l/m 11,2 km/h (2 Bft) N 360 5 min 0,001 mm 0,0 UV-I 0 W/m -3,5 C -3,0 C 24,1 km/h (4 Bft)
17.01.2018 15:25 -0,3 C -0,3 C -0,1 C 87 % 1005,2 hPa 0,0 l/m 8,4 km/h (2 Bft) N-NW 332 0 min 0,051 mm 0,0 UV-I 37 W/m -2,2 C -2,4 C 14,5 km/h (3 Bft)
17.01.2018 14:25 1,7 C 1,7 C 1,8 C 72 % 1004,3 hPa 0,0 l/m 13,8 km/h (3 Bft) W-NW 289 0 min 0,076 mm 0,0 UV-I 39 W/m -2,8 C -4,2 C 29,0 km/h (5 Bft)
17.01.2018 13:25 2,1 C 2,1 C 2,2 C 71 % 1004,1 hPa 0,0 l/m 13,2 km/h (3 Bft) N-NW 330 5 min 0,076 mm 0,0 UV-I 69 W/m -2,6 C -3,4 C 30,6 km/h (5 Bft)
17.01.2018 13:00 2,2 C 2,1 C 2,2 C 72 % 1003,4 hPa 0,0 l/m 12,9 km/h (3 Bft) N 360 0 min 0,076 mm 0,0 UV-I 169 W/m -2,3 C -3,1 C 35,4 km/h (5 Bft)
_ Min-Zeit 15:25 15:25 15:30 00:10 13:00 - 11:30 - - - - - - 00:10 20:25 11:30
Minimum _ -0,3 C -0,3 C -0,3 C 64 % 1003,4 hPa - 1,0 km/h (0 Bft) - - - - - - -3,9 C -11,5 C 3,2 km/h (1 Bft)
_ Max-Zeit 12:30 12:25 12:30 15:30 03:05 04:50 23:55 - - 13:10 13:00 13:10 13:10 12:30 12:30 17:35
Maximum _ 5,4 C 5,2 C 5,4 C 88 % 1013,6 hPa 0,2 l/m 29,6 km/h
N (5 Bft)
- - 5 min 0,076 mm 0,5 UV-I 197 W/m 1,7 C 5,4 C 66,0 km/h
NW (8 Bft)
Durchschnitt _ 1,9 C 1,8 C 1,9 C 76 % 1009,4 hPa #0,6 l/m 12,6 km/h (3 Bft) NW - #5 min. #0,353 mm 0,0 UV-I 57 W/m -1,9 C -3,1 C 29,7 km/h (5 Bft)
Rauscher Max - www.gruenau.tv